Time;durP1;ratioP1;P1;durP2;ratioP2;P2;SDS_P1;SDS_P2;PMS_P1;PMS_P2;Temp;Humidity;BMP_temperature;BMP_pressure;BME280_temperature;BME280_humidity;BME280_pressure;Samples;Min_cycle;Max_cycle;Signal;HPM_P1;HPM_P2
2023/11/27 00:00:14;;;;;;;3.35;2.35;;;1.70;99.90;;;;;;4986298;28;20035;-77
2023/11/27 00:02:40;;;;;;;2.95;2.50;;;1.70;99.90;;;;;;4985220;28;20062;-78
2023/11/27 00:05:06;;;;;;;2.22;2.10;;;1.70;99.90;;;;;;4971175;28;20097;-77
2023/11/27 00:07:32;;;;;;;2.17;1.98;;;1.70;99.90;;;;;;4991889;28;20046;-76
2023/11/27 00:09:57;;;;;;;2.50;2.30;;;1.70;99.90;;;;;;4987255;28;20037;-77
2023/11/27 00:12:23;;;;;;;3.45;2.65;;;1.70;99.90;;;;;;4986302;28;20026;-77
2023/11/27 00:14:48;;;;;;;2.72;2.53;;;1.70;99.90;;;;;;4984685;28;20047;-77
2023/11/27 00:17:14;;;;;;;5.72;3.05;;;1.70;99.90;;;;;;4987046;28;20041;-77
2023/11/27 00:19:40;;;;;;;5.75;4.20;;;1.70;99.90;;;;;;4989015;28;20099;-78
2023/11/27 00:22:05;;;;;;;3.47;3.17;;;1.70;99.90;;;;;;4985794;28;20042;-83
2023/11/27 00:24:31;;;;;;;3.10;2.45;;;1.60;99.90;;;;;;4983999;28;20030;-80
2023/11/27 00:26:56;;;;;;;4.18;2.92;;;1.60;99.90;;;;;;4983929;28;20065;-78
2023/11/27 00:29:22;;;;;;;6.40;5.25;;;1.60;99.90;;;;;;4984735;28;20030;-79
2023/11/27 00:31:47;;;;;;;4.90;3.30;;;1.70;99.90;;;;;;4986292;28;20078;-79
2023/11/27 00:34:13;;;;;;;5.97;4.28;;;1.60;99.90;;;;;;4968059;28;20119;-77
2023/11/27 00:36:39;;;;;;;3.25;2.90;;;1.60;99.90;;;;;;4970377;28;20034;-77
2023/11/27 00:39:08;;;;;;;3.63;3.33;;;1.60;99.90;;;;;;4982474;28;20041;-78
2023/11/27 00:41:35;;;;;;;4.05;2.83;;;1.60;99.90;;;;;;4991941;28;20030;-77
2023/11/27 00:44:01;;;;;;;3.00;2.70;;;1.70;99.90;;;;;;4984242;28;20025;-77
2023/11/27 00:46:27;;;;;;;4.28;2.55;;;1.70;99.90;;;;;;4982791;28;20031;-77
2023/11/27 00:48:52;;;;;;;2.60;2.45;;;1.70;99.90;;;;;;4985993;28;20037;-78
2023/11/27 00:51:18;;;;;;;1.95;1.85;;;1.70;99.90;;;;;;4993225;28;20122;-78
2023/11/27 00:53:44;;;;;;;4.80;2.63;;;1.60;99.90;;;;;;4990813;28;20027;-77
2023/11/27 00:56:10;;;;;;;3.05;2.83;;;1.70;99.90;;;;;;4988272;28;20113;-82
2023/11/27 00:58:38;;;;;;;2.97;2.38;;;1.70;99.90;;;;;;4989111;28;20035;-82
2023/11/27 01:01:05;;;;;;;2.85;2.42;;;1.70;99.90;;;;;;4989531;28;20120;-84
2023/11/27 01:03:31;;;;;;;3.97;2.88;;;1.70;99.90;;;;;;4985054;28;20094;-82
2023/11/27 01:06:00;;;;;;;3.63;2.90;;;1.70;99.90;;;;;;4986986;28;20039;-82
2023/11/27 01:08:26;;;;;;;3.20;2.58;;;1.70;99.90;;;;;;4990940;28;20029;-82
2023/11/27 01:10:51;;;;;;;3.17;2.72;;;1.80;99.90;;;;;;4989704;28;20038;-83
2023/11/27 01:13:18;;;;;;;2.70;2.50;;;1.80;99.90;;;;;;4989633;28;20123;-83
2023/11/27 01:15:44;;;;;;;3.10;2.90;;;1.80;99.90;;;;;;4993435;28;20031;-84
2023/11/27 01:18:10;;;;;;;3.10;2.40;;;1.80;99.90;;;;;;4990614;28;20068;-82
2023/11/27 01:20:46;;;;;;;2.92;2.35;;;1.80;99.90;;;;;;4990000;28;20038;-82
2023/11/27 01:23:15;;;;;;;2.75;2.55;;;1.70;99.90;;;;;;4986428;28;20038;-84
2023/11/27 01:26:20;;;;;;;3.05;2.70;;;1.70;99.90;;;;;;4989367;28;20170;-82
2023/11/27 01:28:46;;;;;;;3.72;2.78;;;1.70;99.90;;;;;;4983793;28;20042;-82
2023/11/27 01:31:13;;;;;;;4.68;2.97;;;1.70;99.90;;;;;;4985308;28;20043;-84
2023/11/27 01:33:39;;;;;;;3.10;2.55;;;1.70;99.90;;;;;;4982470;28;20034;-83
2023/11/27 01:36:05;;;;;;;4.30;3.15;;;1.70;99.90;;;;;;4983765;28;20309;-83
2023/11/27 01:38:30;;;;;;;3.05;2.72;;;1.70;99.90;;;;;;4984489;28;20023;-81
2023/11/27 01:40:56;;;;;;;3.25;2.47;;;1.60;99.90;;;;;;4984434;28;20030;-82
2023/11/27 01:43:22;;;;;;;3.30;2.67;;;1.70;99.90;;;;;;4986110;28;20027;-82
2023/11/27 01:45:52;;;;;;;3.17;2.75;;;1.70;99.90;;;;;;4982938;28;20097;-83
2023/11/27 01:48:17;;;;;;;5.68;3.17;;;1.70;99.90;;;;;;4982445;28;20295;-83
2023/11/27 01:50:43;;;;;;;4.07;3.28;;;1.70;99.90;;;;;;4980663;28;20043;-83
2023/11/27 01:53:09;;;;;;;4.05;2.53;;;1.70;99.90;;;;;;4987921;28;20034;-83
2023/11/27 01:55:35;;;;;;;4.70;3.10;;;1.70;99.90;;;;;;4981093;28;20066;-83
2023/11/27 01:58:01;;;;;;;5.40;3.33;;;1.60;99.90;;;;;;4990923;28;20026;-83
2023/11/27 02:00:28;;;;;;;2.63;2.40;;;1.60;99.90;;;;;;4983055;28;20049;-83
2023/11/27 02:02:56;;;;;;;4.10;2.95;;;1.70;99.90;;;;;;4985032;28;20051;-83
2023/11/27 02:05:21;;;;;;;3.27;2.97;;;1.60;99.90;;;;;;4983099;28;20046;-82
2023/11/27 02:07:47;;;;;;;3.97;3.13;;;1.70;99.90;;;;;;4980706;28;20041;-75
2023/11/27 02:10:13;;;;;;;3.42;2.90;;;1.70;99.90;;;;;;4977099;28;20035;-75
2023/11/27 02:12:38;;;;;;;3.00;2.80;;;1.70;99.90;;;;;;4978624;28;20027;-75
2023/11/27 02:15:05;;;;;;;4.28;2.72;;;1.70;99.90;;;;;;4977715;28;20046;-77
2023/11/27 02:17:30;;;;;;;4.25;3.15;;;1.80;99.90;;;;;;4977850;28;20062;-79
2023/11/27 02:19:56;;;;;;;4.97;2.60;;;1.70;99.90;;;;;;4975581;28;20562;-75
2023/11/27 02:22:24;;;;;;;3.72;2.83;;;1.80;99.90;;;;;;4975920;28;20031;-75
2023/11/27 02:24:50;;;;;;;;;;;1.80;99.90;;;;;;4975670;28;20159;-74
2023/11/27 02:27:16;;;;;;;3.58;2.58;;;1.90;99.90;;;;;;4977896;28;20397;-75
2023/11/27 02:29:42;;;;;;;2.92;2.72;;;1.90;99.90;;;;;;4977984;28;20042;-76
2023/11/27 02:32:08;;;;;;;3.65;3.22;;;1.90;99.90;;;;;;4973553;28;20059;-73
2023/11/27 02:34:33;;;;;;;6.43;3.20;;;1.90;99.90;;;;;;4976527;28;20089;-74
2023/11/27 02:36:59;;;;;;;3.10;2.80;;;1.90;99.90;;;;;;4975592;28;20031;-73
2023/11/27 02:39:25;;;;;;;2.92;2.65;;;1.90;99.90;;;;;;4977138;28;20066;-74
2023/11/27 02:41:50;;;;;;;4.05;2.75;;;1.90;99.90;;;;;;4977072;28;20837;-73
2023/11/27 02:44:16;;;;;;;3.45;3.15;;;1.90;99.90;;;;;;4972874;28;20431;-74
2023/11/27 02:46:41;;;;;;;3.80;3.33;;;2.00;99.90;;;;;;4972229;28;20041;-74
2023/11/27 02:49:07;;;;;;;10.55;5.38;;;2.00;99.90;;;;;;4977315;28;20486;-74
2023/11/27 02:51:40;;;;;;;26.25;10.35;;;2.00;99.90;;;;;;4975843;28;20045;-74
2023/11/27 02:54:07;;;;;;;39.28;17.30;;;1.90;99.90;;;;;;4972777;28;20062;-75
2023/11/27 02:56:32;;;;;;;9.45;4.85;;;1.90;99.90;;;;;;4982849;28;20098;-75
2023/11/27 02:58:58;;;;;;;25.05;11.02;;;1.90;99.90;;;;;;4965184;28;20085;-74
2023/11/27 03:01:26;;;;;;;7.70;3.40;;;1.90;99.90;;;;;;4978858;28;20411;-73
2023/11/27 03:03:52;;;;;;;8.32;4.28;;;1.90;99.90;;;;;;4979794;28;20039;-74
2023/11/27 03:06:18;;;;;;;4.30;2.88;;;1.80;99.90;;;;;;4981104;28;20080;-75
2023/11/27 03:08:44;;;;;;;3.75;3.35;;;1.90;99.90;;;;;;4962357;28;20018;-75
2023/11/27 03:11:13;;;;;;;5.10;3.08;;;1.90;99.90;;;;;;4979124;28;20118;-74
2023/11/27 03:13:41;;;;;;;3.67;3.22;;;1.90;99.90;;;;;;4977638;28;20596;-75
2023/11/27 03:16:07;;;;;;;;;;;1.90;99.90;;;;;;4976461;28;20169;-73
2023/11/27 03:18:33;;;;;;;4.88;3.05;;;1.80;99.90;;;;;;4972953;28;19945;-73
2023/11/27 03:20:58;;;;;;;3.35;3.05;;;1.80;99.90;;;;;;4976997;28;20046;-73
2023/11/27 03:23:24;;;;;;;5.70;3.13;;;1.80;99.90;;;;;;4979708;28;20501;-74
2023/11/27 03:25:52;;;;;;;4.53;3.75;;;1.80;99.90;;;;;;4975484;28;20035;-77
2023/11/27 03:28:17;;;;;;;3.90;3.47;;;1.80;99.90;;;;;;4979660;28;20498;-76
2023/11/27 03:30:43;;;;;;;3.95;3.10;;;1.80;99.90;;;;;;4977442;28;20054;-75
2023/11/27 03:33:09;;;;;;;3.78;3.42;;;1.80;99.90;;;;;;4980111;28;20031;-74
2023/11/27 03:35:35;;;;;;;4.85;2.78;;;1.80;99.90;;;;;;4977856;28;20058;-75
2023/11/27 03:38:00;;;;;;;6.90;3.67;;;1.80;99.90;;;;;;4980857;28;20026;-76
2023/11/27 03:40:26;;;;;;;4.30;2.80;;;1.80;99.90;;;;;;4982186;28;20038;-74
2023/11/27 03:42:52;;;;;;;2.85;2.65;;;1.80;99.90;;;;;;4979407;28;20447;-75
2023/11/27 03:45:17;;;;;;;4.85;3.55;;;1.80;99.90;;;;;;4976648;28;20034;-74
2023/11/27 03:47:43;;;;;;;3.33;3.05;;;1.80;99.90;;;;;;4981066;28;20042;-74
2023/11/27 03:50:10;;;;;;;3.88;3.58;;;1.80;99.90;;;;;;4981337;28;20031;-75
2023/11/27 03:52:36;;;;;;;3.90;3.22;;;1.80;99.90;;;;;;4978820;28;20042;-75
2023/11/27 03:55:02;;;;;;;8.93;5.82;;;1.80;99.90;;;;;;4963415;28;20031;-74
2023/11/27 03:57:28;;;;;;;10.55;7.88;;;1.80;99.90;;;;;;4977887;28;20062;-75
2023/11/27 03:59:54;;;;;;;13.13;8.48;;;1.80;99.90;;;;;;4979043;28;20030;-74
2023/11/27 04:02:20;;;;;;;10.23;8.18;;;1.80;99.90;;;;;;4978903;28;20043;-74
2023/11/27 04:04:46;;;;;;;17.92;10.50;;;1.80;99.90;;;;;;4980427;28;20110;-73
2023/11/27 04:07:11;;;;;;;15.75;10.10;;;1.80;99.90;;;;;;4976182;28;20027;-77
2023/11/27 04:09:37;;;;;;;6.50;5.35;;;1.70;99.90;;;;;;4980531;28;20038;-75
2023/11/27 04:12:05;;;;;;;7.53;5.15;;;1.70;99.90;;;;;;4981143;28;20125;-74
2023/11/27 04:14:31;;;;;;;9.23;5.55;;;1.70;99.90;;;;;;4984729;28;20033;-75
2023/11/27 04:16:57;;;;;;;9.30;5.03;;;1.80;99.90;;;;;;4978882;28;20061;-75
2023/11/27 04:19:22;;;;;;;4.85;3.72;;;1.80;99.90;;;;;;4979531;28;20117;-75
2023/11/27 04:21:48;;;;;;;5.20;3.83;;;1.80;99.90;;;;;;4979655;28;20042;-74
2023/11/27 04:24:13;;;;;;;4.78;3.00;;;1.70;99.90;;;;;;4979659;28;20040;-75
2023/11/27 04:26:39;;;;;;;3.78;2.80;;;1.80;99.90;;;;;;4979634;28;20045;-75
2023/11/27 04:29:05;;;;;;;4.72;2.95;;;1.70;99.90;;;;;;4978477;28;20041;-74
2023/11/27 04:31:32;;;;;;;2.92;2.45;;;1.70;99.90;;;;;;4964545;28;20042;-74
2023/11/27 04:33:58;;;;;;;2.92;2.60;;;1.70;99.90;;;;;;4977774;28;20042;-76
2023/11/27 04:36:23;;;;;;;3.20;2.75;;;1.70;99.90;;;;;;4979935;28;20058;-81
2023/11/27 04:38:49;;;;;;;4.10;2.67;;;1.70;99.90;;;;;;4983666;28;20038;-83
2023/11/27 04:41:16;;;;;;;3.67;2.85;;;1.60;99.90;;;;;;4985640;28;20102;-82
2023/11/27 04:43:41;;;;;;;3.53;2.83;;;1.60;99.90;;;;;;4984377;28;20042;-83
2023/11/27 04:46:07;;;;;;;4.68;2.78;;;1.70;99.90;;;;;;4985308;28;20023;-83
2023/11/27 04:48:33;;;;;;;4.63;3.20;;;1.70;99.90;;;;;;4988353;28;20037;-82
2023/11/27 04:51:00;;;;;;;2.95;2.67;;;1.70;99.90;;;;;;4984669;28;20042;-83
2023/11/27 04:53:26;;;;;;;3.17;2.90;;;1.70;99.90;;;;;;4983726;28;20037;-82
2023/11/27 04:55:52;;;;;;;3.05;2.72;;;1.70;99.90;;;;;;4985984;28;20082;-82
2023/11/27 04:58:18;;;;;;;3.13;2.55;;;1.70;99.90;;;;;;4982838;28;20031;-83
2023/11/27 05:00:43;;;;;;;3.42;2.90;;;1.70;99.90;;;;;;4982607;28;20138;-82
2023/11/27 05:03:09;;;;;;;2.90;2.60;;;1.60;99.90;;;;;;4982488;28;20046;-82
2023/11/27 05:05:36;;;;;;;2.80;2.50;;;1.70;99.90;;;;;;4984717;28;20117;-82
2023/11/27 05:08:02;;;;;;;2.72;2.47;;;1.70;99.90;;;;;;4986534;28;20058;-82
2023/11/27 05:10:28;;;;;;;3.55;2.55;;;1.60;99.90;;;;;;4988510;28;20483;-83
2023/11/27 05:12:53;;;;;;;2.90;2.28;;;1.70;99.90;;;;;;4988407;28;20042;-83
2023/11/27 05:15:19;;;;;;;5.50;2.47;;;1.70;99.90;;;;;;4986511;28;20035;-82
2023/11/27 05:17:47;;;;;;;2.50;2.35;;;1.70;99.90;;;;;;4985497;28;20043;-83
2023/11/27 05:20:13;;;;;;;3.17;2.87;;;1.60;99.90;;;;;;4986673;28;20115;-82
2023/11/27 05:22:38;;;;;;;3.10;2.53;;;1.60;99.90;;;;;;4988448;28;20026;-83
2023/11/27 05:25:05;;;;;;;2.95;2.65;;;1.60;99.90;;;;;;4984644;28;20526;-82
2023/11/27 05:27:31;;;;;;;2.50;2.30;;;1.60;99.90;;;;;;4983960;28;20028;-81
2023/11/27 05:29:56;;;;;;;2.10;1.90;;;1.60;99.90;;;;;;4965198;28;20105;-82
2023/11/27 05:32:22;;;;;;;2.20;2.00;;;1.50;99.90;;;;;;4983517;28;20075;-82
2023/11/27 05:34:48;;;;;;;2.08;1.67;;;1.50;99.90;;;;;;4987987;28;20050;-83
2023/11/27 05:37:13;;;;;;;5.45;2.50;;;1.50;99.90;;;;;;4979733;28;20034;-72
2023/11/27 05:39:41;;;;;;;2.05;1.85;;;1.40;99.90;;;;;;4979045;28;20035;-72
2023/11/27 05:42:11;;;;;;;4.65;2.10;;;1.30;99.90;;;;;;4976903;28;20082;-72
2023/11/27 05:44:40;;;;;;;2.40;2.20;;;1.30;99.90;;;;;;4975115;28;20110;-73
2023/11/27 05:47:06;;;;;;;3.13;2.00;;;1.20;99.90;;;;;;4982501;28;20030;-77
2023/11/27 05:49:33;;;;;;;2.80;2.38;;;1.30;99.90;;;;;;4967534;28;20501;-77
2023/11/27 05:51:58;;;;;;;1.90;1.75;;;1.30;99.90;;;;;;4981329;28;20047;-78
2023/11/27 05:54:24;;;;;;;3.00;2.75;;;1.30;99.90;;;;;;4981159;28;20050;-76
2023/11/27 05:56:50;;;;;;;2.55;2.35;;;1.30;99.90;;;;;;4985699;28;20606;-77
2023/11/27 05:59:17;;;;;;;2.28;2.08;;;1.30;99.90;;;;;;4984393;28;20038;-78
2023/11/27 06:01:43;;;;;;;2.22;2.03;;;1.30;99.90;;;;;;4978351;28;20049;-78
2023/11/27 06:04:08;;;;;;;2.10;2.00;;;1.40;99.90;;;;;;4981982;28;20031;-78
2023/11/27 06:06:34;;;;;;;2.50;2.30;;;1.40;99.90;;;;;;4982242;28;20030;-78
2023/11/27 06:09:00;;;;;;;3.42;2.58;;;1.50;99.90;;;;;;4980258;28;20087;-78
2023/11/27 06:11:25;;;;;;;2.92;2.63;;;1.50;99.90;;;;;;4984692;28;20030;-77
2023/11/27 06:13:51;;;;;;;2.05;1.88;;;1.50;99.90;;;;;;4986595;28;20415;-76
2023/11/27 06:16:17;;;;;;;2.53;2.22;;;1.50;99.90;;;;;;4986452;28;20537;-77
2023/11/27 06:18:43;;;;;;;4.80;2.38;;;1.50;99.90;;;;;;4981573;28;20353;-77
2023/11/27 06:21:11;;;;;;;2.45;2.25;;;1.50;99.90;;;;;;4987512;28;20093;-77
2023/11/27 06:23:37;;;;;;;3.20;2.17;;;1.40;99.90;;;;;;4983184;28;20506;-77
2023/11/27 06:26:06;;;;;;;2.55;2.35;;;1.40;99.90;;;;;;4983662;28;20112;-77
2023/11/27 06:28:32;;;;;;;2.30;2.15;;;1.40;99.90;;;;;;4978948;28;20034;-77
2023/11/27 06:30:58;;;;;;;4.78;2.55;;;1.20;99.90;;;;;;4977405;28;20039;-78
2023/11/27 06:33:33;;;;;;;2.40;2.25;;;1.20;99.90;;;;;;4986363;28;20023;-77
2023/11/27 06:36:06;;;;;;;2.50;2.30;;;1.30;99.90;;;;;;4981024;28;20051;-76
2023/11/27 06:39:26;;;;;;;;;;;;;;;;;;;;;
2023/11/27 06:41:41;;;;;;;3.47;2.47;;;1.10;99.90;;;;;;4975678;28;20082;-77
2023/11/27 06:44:09;;;;;;;5.88;3.35;;;1.10;99.90;;;;;;4984053;28;20772;-77
2023/11/27 06:46:35;;;;;;;5.10;3.55;;;1.10;99.90;;;;;;4966273;28;20053;-79
2023/11/27 06:49:09;;;;;;;6.43;3.97;;;1.10;99.90;;;;;;4982237;28;20118;-78
2023/11/27 06:51:55;;;;;;;5.22;2.65;;;1.00;99.90;;;;;;4990323;28;20590;-78
2023/11/27 06:54:21;;;;;;;10.02;3.10;;;1.00;99.90;;;;;;4983247;28;20026;-76
2023/11/27 06:56:47;;;;;;;3.63;2.42;;;1.10;99.90;;;;;;4976375;28;20031;-75
2023/11/27 06:59:33;;;;;;;3.13;2.80;;;1.10;99.90;;;;;;4978235;28;20034;-75
2023/11/27 07:02:05;;;;;;;4.05;3.35;;;1.10;99.90;;;;;;4971941;28;20503;-74
2023/11/27 07:04:40;;;;;;;4.53;3.30;;;1.20;99.90;;;;;;4966359;28;20655;-76
2023/11/27 07:07:08;;;;;;;2.78;2.20;;;1.20;99.90;;;;;;4978366;28;20387;-73
2023/11/27 07:09:35;;;;;;;3.28;2.65;;;1.20;99.90;;;;;;4977548;28;20027;-75
2023/11/27 07:12:00;;;;;;;3.42;2.70;;;1.20;99.90;;;;;;4977995;28;20102;-74
2023/11/27 07:14:26;;;;;;;3.35;2.65;;;1.10;99.90;;;;;;4977878;28;20066;-75
2023/11/27 07:16:52;;;;;;;3.17;2.30;;;1.10;99.90;;;;;;4978255;28;20038;-78
2023/11/27 07:19:18;;;;;;;3.22;2.58;;;1.20;99.90;;;;;;4978371;28;20027;-78
2023/11/27 07:21:57;;;;;;;2.63;2.40;;;1.20;99.90;;;;;;5115790;27;20442;-30
2023/11/27 07:24:23;;;;;;;3.78;2.72;;;1.10;99.90;;;;;;5113438;28;20054;-31
2023/11/27 07:26:48;;;;;;;3.13;2.60;;;1.10;99.90;;;;;;5116217;27;20512;-39
2023/11/27 07:29:14;;;;;;;2.40;2.20;;;1.10;99.90;;;;;;5115828;27;20023;-38
2023/11/27 07:31:40;;;;;;;2.42;2.22;;;1.00;99.90;;;;;;5099047;27;20035;-39
2023/11/27 07:34:05;;;;;;;2.60;2.40;;;1.10;99.90;;;;;;5096156;28;20031;-37
2023/11/27 07:36:31;;;;;;;4.57;2.58;;;1.10;99.90;;;;;;5086575;28;20548;-34
2023/11/27 07:38:56;;;;;;;2.10;1.90;;;1.10;99.90;;;;;;5094592;28;20046;-39
2023/11/27 07:41:22;;;;;;;2.30;2.10;;;1.20;99.90;;;;;;5093799;28;20035;-39
2023/11/27 07:43:48;;;;;;;1.75;1.65;;;1.20;99.90;;;;;;5092822;28;20109;-36
2023/11/27 07:46:14;;;;;;;2.00;1.90;;;1.20;99.90;;;;;;5091387;28;20043;-37
2023/11/27 07:48:42;;;;;;;1.80;1.70;;;1.10;99.90;;;;;;5095216;28;20435;-39
2023/11/27 07:51:08;;;;;;;2.15;1.95;;;1.20;99.90;;;;;;5093738;28;20024;-40
2023/11/27 07:53:34;;;;;;;1.80;1.70;;;1.20;99.90;;;;;;5092600;28;20112;-39
2023/11/27 07:56:00;;;;;;;2.10;1.90;;;1.20;99.90;;;;;;5097905;28;20422;-40
2023/11/27 07:58:26;;;;;;;2.75;2.17;;;1.20;99.90;;;;;;5095415;28;20034;-40
2023/11/27 08:00:52;;;;;;;2.10;2.00;;;1.30;99.90;;;;;;5088448;27;20548;-39
2023/11/27 08:03:17;;;;;;;2.33;1.83;;;1.30;99.90;;;;;;5088377;28;20359;-34
2023/11/27 08:05:43;;;;;;;2.03;1.65;;;1.30;99.90;;;;;;5091873;28;20036;-38
2023/11/27 08:08:10;;;;;;;2.40;2.17;;;1.40;99.90;;;;;;5092198;28;20432;-39
2023/11/27 08:10:36;;;;;;;1.92;1.83;;;1.40;99.90;;;;;;5095377;28;20088;-34
2023/11/27 08:13:04;;;;;;;3.28;2.53;;;1.40;99.90;;;;;;5093846;28;20016;-40
2023/11/27 08:15:29;;;;;;;6.28;2.17;;;1.40;99.90;;;;;;5086774;28;20028;-38
2023/11/27 08:17:56;;;;;;;2.85;1.77;;;1.40;99.90;;;;;;5091652;28;20044;-39
2023/11/27 08:20:28;;;;;;;1.65;1.55;;;1.40;99.90;;;;;;5088162;28;20119;-41
2023/11/27 08:22:59;;;;;;;1.70;1.60;;;1.40;99.90;;;;;;5091551;28;20028;-40
2023/11/27 08:25:26;;;;;;;1.92;1.80;;;1.50;99.90;;;;;;5090322;28;20073;-40
2023/11/27 08:27:52;;;;;;;2.45;1.80;;;1.40;99.90;;;;;;5089713;28;20028;-37
2023/11/27 08:30:19;;;;;;;3.00;1.60;;;1.50;99.90;;;;;;5084844;28;20038;-37
2023/11/27 08:32:46;;;;;;;2.90;1.60;;;1.50;99.90;;;;;;5081830;27;20059;-40
2023/11/27 08:35:11;;;;;;;2.35;1.70;;;1.50;99.90;;;;;;5071902;28;20029;-38
2023/11/27 08:37:37;;;;;;;1.83;1.73;;;1.50;99.90;;;;;;5075607;28;20043;-32
2023/11/27 08:40:07;;;;;;;2.15;1.98;;;1.50;99.90;;;;;;5079137;28;20066;-36
2023/11/27 08:42:34;;;;;;;1.75;1.60;;;1.60;99.90;;;;;;5070871;28;20044;-37
2023/11/27 08:45:10;;;;;;;1.90;1.65;;;1.60;99.90;;;;;;5077239;28;20023;-32
2023/11/27 08:47:38;;;;;;;2.03;1.92;;;1.60;99.90;;;;;;5079846;28;20136;-31
2023/11/27 08:50:05;;;;;;;1.85;1.67;;;1.70;99.90;;;;;;5079269;28;20032;-30
2023/11/27 08:52:31;;;;;;;1.98;1.77;;;1.60;99.90;;;;;;5081321;28;20024;-37
2023/11/27 08:54:57;;;;;;;2.28;2.10;;;1.70;99.90;;;;;;5078688;28;20036;-31
2023/11/27 08:57:23;;;;;;;1.80;1.70;;;1.70;99.90;;;;;;5078214;28;20012;-41
2023/11/27 08:59:49;;;;;;;1.73;1.63;;;1.70;99.90;;;;;;5075849;28;20036;-40
2023/11/27 09:02:16;;;;;;;1.50;1.30;;;1.80;99.90;;;;;;5071553;28;20098;-41
2023/11/27 09:04:41;;;;;;;1.50;1.40;;;1.80;99.90;;;;;;5071842;28;20466;-40
2023/11/27 09:07:07;;;;;;;2.20;1.83;;;1.90;99.90;;;;;;5076485;28;20082;-41
2023/11/27 09:09:33;;;;;;;2.03;1.70;;;1.90;99.90;;;;;;5077668;28;20021;-41
2023/11/27 09:11:59;;;;;;;3.83;2.05;;;1.90;99.90;;;;;;5076352;28;20039;-40
2023/11/27 09:14:25;;;;;;;1.60;1.50;;;2.00;99.90;;;;;;5072910;28;20522;-38
2023/11/27 09:16:52;;;;;;;1.50;1.40;;;2.00;99.90;;;;;;5076172;28;20570;-40
2023/11/27 09:19:18;;;;;;;3.28;2.10;;;2.10;99.90;;;;;;5102125;27;20023;-37
2023/11/27 09:21:45;;;;;;;2.25;1.67;;;2.10;99.90;;;;;;5074491;28;20384;-41
2023/11/27 09:24:11;;;;;;;1.90;1.80;;;2.20;99.90;;;;;;5074360;28;20058;-40
2023/11/27 09:26:37;;;;;;;2.22;2.00;;;2.30;99.90;;;;;;5073913;28;20044;-34
2023/11/27 09:29:02;;;;;;;1.27;1.27;;;2.30;99.90;;;;;;5073880;28;20065;-39
2023/11/27 09:31:29;;;;;;;1.75;1.65;;;2.30;99.90;;;;;;5075397;28;20515;-37
2023/11/27 09:33:54;;;;;;;1.13;1.13;;;2.40;99.90;;;;;;5072112;28;20028;-39
2023/11/27 09:36:20;;;;;;;2.42;1.80;;;2.40;99.90;;;;;;5074089;28;20047;-39
2023/11/27 09:38:47;;;;;;;2.17;1.60;;;2.40;99.90;;;;;;5074635;28;20032;-37
2023/11/27 09:41:13;;;;;;;3.35;2.05;;;2.50;99.90;;;;;;5078028;28;20093;-40
2023/11/27 09:43:39;;;;;;;5.80;3.85;;;2.50;99.90;;;;;;5075232;28;20051;-39
2023/11/27 09:46:07;;;;;;;3.15;2.20;;;2.60;99.90;;;;;;5073578;28;20028;-37
2023/11/27 09:48:39;;;;;;;1.98;1.83;;;2.60;99.90;;;;;;5077196;28;20108;-38
2023/11/27 09:51:11;;;;;;;1.98;1.48;;;2.60;99.90;;;;;;5076571;28;20024;-39
2023/11/27 09:53:40;;;;;;;2.15;1.90;;;2.60;99.90;;;;;;5082413;28;20085;-35
2023/11/27 09:56:08;;;;;;;1.67;1.58;;;2.70;99.90;;;;;;5080809;28;20416;-35
2023/11/27 09:58:36;;;;;;;2.20;2.10;;;2.70;99.90;;;;;;5077865;28;20028;-29
2023/11/27 10:01:05;;;;;;;1.75;1.40;;;2.80;99.90;;;;;;5077450;28;20336;-30
2023/11/27 10:03:31;;;;;;;2.10;1.90;;;2.80;99.90;;;;;;5085967;28;20115;-31
2023/11/27 10:05:58;;;;;;;1.92;1.70;;;2.90;99.90;;;;;;5081406;28;20447;-30
2023/11/27 10:08:26;;;;;;;2.22;2.00;;;2.90;99.90;;;;;;5075556;28;20028;-29
2023/11/27 10:10:53;;;;;;;1.67;1.57;;;2.90;99.90;;;;;;5075476;28;20082;-30
2023/11/27 10:13:29;;;;;;;2.72;2.10;;;3.00;99.90;;;;;;5085150;28;20282;-32
2023/11/27 10:16:02;;;;;;;2.00;1.90;;;3.00;99.90;;;;;;5081621;28;20067;-33
2023/11/27 10:18:28;;;;;;;2.28;2.08;;;3.10;99.90;;;;;;5080156;28;20032;-32
2023/11/27 10:20:54;;;;;;;2.13;1.92;;;3.10;99.90;;;;;;5086128;28;20044;-31
2023/11/27 10:23:21;;;;;;;4.20;3.13;;;3.10;99.90;;;;;;5080092;28;20491;-33
2023/11/27 10:25:56;;;;;;;2.88;1.92;;;3.20;99.90;;;;;;5077655;28;20036;-30
2023/11/27 10:28:39;;;;;;;1.70;1.60;;;3.20;99.90;;;;;;5078194;28;20075;-31
2023/11/27 10:31:06;;;;;;;2.45;1.73;;;3.20;99.90;;;;;;5077426;28;20025;-30
2023/11/27 10:33:32;;;;;;;1.83;1.73;;;3.20;99.90;;;;;;5083317;28;20078;-30
2023/11/27 10:35:59;;;;;;;2.03;1.90;;;3.30;99.90;;;;;;5075256;28;20037;-30
2023/11/27 10:38:25;;;;;;;2.25;2.00;;;3.30;99.90;;;;;;5076287;28;20021;-32
2023/11/27 10:40:52;;;;;;;2.45;1.80;;;3.40;99.90;;;;;;5082097;28;20641;-31
2023/11/27 10:43:22;;;;;;;3.65;2.20;;;3.40;99.90;;;;;;5089508;28;20136;-37
2023/11/27 10:45:50;;;;;;;2.30;1.52;;;3.40;99.90;;;;;;5073628;28;20024;-29
2023/11/27 10:48:17;;;;;;;2.10;1.90;;;3.40;99.90;;;;;;5085721;28;20028;-30
2023/11/27 10:50:45;;;;;;;2.08;1.85;;;3.50;99.90;;;;;;5072989;28;20370;-38
2023/11/27 10:53:15;;;;;;;2.15;1.90;;;3.50;99.90;;;;;;5079418;28;20027;-40
2023/11/27 10:55:44;;;;;;;2.05;1.95;;;3.60;99.90;;;;;;5070375;28;20119;-43
2023/11/27 10:58:11;;;;;;;3.97;1.88;;;3.60;99.90;;;;;;5080809;28;20120;-40
2023/11/27 11:00:46;;;;;;;2.20;2.10;;;3.60;99.90;;;;;;5075782;27;20081;-35
2023/11/27 11:03:19;;;;;;;1.92;1.83;;;3.70;99.90;;;;;;5076927;28;20112;-39
2023/11/27 11:05:50;;;;;;;2.30;2.10;;;3.80;99.90;;;;;;5078385;28;20028;-38
2023/11/27 11:08:21;;;;;;;2.33;1.65;;;3.80;99.90;;;;;;5079862;28;20516;-41
2023/11/27 11:10:47;;;;;;;2.05;1.85;;;3.80;99.90;;;;;;5081349;28;20032;-38
2023/11/27 11:13:16;;;;;;;2.03;1.92;;;3.80;99.90;;;;;;5083532;28;20036;-41
2023/11/27 11:15:44;;;;;;;1.20;1.20;;;3.80;99.90;;;;;;5072202;28;20074;-40
2023/11/27 11:18:20;;;;;;;1.80;1.70;;;3.80;99.90;;;;;;5070106;28;20112;-39
2023/11/27 11:21:12;;;;;;;1.90;1.75;;;3.90;99.90;;;;;;5070784;28;20505;-41
2023/11/27 11:24:09;;;;;;;2.45;2.08;;;3.80;99.90;;;;;;5069117;28;20028;-37
2023/11/27 11:26:46;;;;;;;2.08;1.92;;;3.90;99.90;;;;;;5076458;28;20023;-30
2023/11/27 11:29:36;;;;;;;3.13;2.35;;;3.90;99.90;;;;;;5075418;28;20770;-30
2023/11/27 11:32:10;;;;;;;3.60;2.50;;;3.90;99.90;;;;;;5071686;27;20036;-36
2023/11/27 11:34:38;;;;;;;2.28;2.08;;;4.00;99.90;;;;;;5077895;28;20035;-29
2023/11/27 11:37:07;;;;;;;1.87;1.77;;;4.00;99.90;;;;;;5072918;28;20513;-32
2023/11/27 11:39:33;;;;;;;2.05;1.85;;;4.10;99.90;;;;;;5074613;28;20056;-34
2023/11/27 11:42:13;;;;;;;2.08;1.88;;;4.10;99.90;;;;;;5077984;28;20112;-30
2023/11/27 11:44:41;;;;;;;4.57;2.35;;;4.10;99.90;;;;;;5069929;28;20465;-30
2023/11/27 11:47:27;;;;;;;3.30;2.30;;;4.20;99.90;;;;;;5080327;28;20489;-29
2023/11/27 11:50:28;;;;;;;2.90;2.40;;;4.20;99.90;;;;;;5075658;28;20059;-30
2023/11/27 11:52:57;;;;;;;3.05;2.40;;;4.20;99.90;;;;;;5079333;28;20090;-31
2023/11/27 11:55:32;;;;;;;2.90;1.98;;;4.20;99.90;;;;;;5073646;28;20386;-31
2023/11/27 11:58:07;;;;;;;2.42;2.22;;;4.20;99.90;;;;;;5076115;28;20020;-31
2023/11/27 12:00:43;;;;;;;3.15;2.08;;;4.20;99.90;;;;;;5073977;27;20066;-34
2023/11/27 12:03:16;;;;;;;4.10;3.20;;;4.30;99.90;;;;;;5079529;28;20105;-31
2023/11/27 12:05:49;;;;;;;3.10;2.45;;;4.40;99.90;;;;;;5073418;28;20036;-30
2023/11/27 12:08:17;;;;;;;4.72;2.55;;;4.50;99.90;;;;;;5080719;28;20100;-31
2023/11/27 12:10:43;;;;;;;2.22;2.03;;;4.60;99.90;;;;;;5084633;28;20673;-33
2023/11/27 12:13:09;;;;;;;2.72;2.53;;;4.70;99.90;;;;;;5084043;28;20149;-31
2023/11/27 12:15:35;;;;;;;2.13;1.92;;;4.70;99.90;;;;;;5076913;28;20024;-30
2023/11/27 12:18:01;;;;;;;3.30;2.53;;;4.80;99.90;;;;;;5085412;28;20044;-33
2023/11/27 12:20:27;;;;;;;2.58;1.83;;;4.70;99.90;;;;;;5078142;28;20409;-30
2023/11/27 12:22:52;;;;;;;3.67;2.50;;;4.70;99.90;;;;;;5086767;28;20036;-33
2023/11/27 12:25:18;;;;;;;2.85;2.60;;;4.80;99.90;;;;;;5080540;28;20020;-33
2023/11/27 12:27:47;;;;;;;2.80;2.10;;;4.80;99.90;;;;;;5078533;28;20021;-33
2023/11/27 12:30:20;;;;;;;2.35;2.00;;;4.80;99.90;;;;;;5080428;28;20039;-30
2023/11/27 12:32:49;;;;;;;3.10;2.40;;;4.90;99.90;;;;;;5075830;28;20048;-30
2023/11/27 12:35:15;;;;;;;3.47;2.25;;;4.90;99.90;;;;;;5082383;28;20082;-30
2023/11/27 12:37:45;;;;;;;8.63;2.72;;;4.80;99.90;;;;;;5076142;28;20025;-41
2023/11/27 12:40:17;;;;;;;2.05;1.90;;;4.80;99.90;;;;;;5073476;28;20029;-41
2023/11/27 12:42:45;;;;;;;2.80;2.08;;;4.80;99.90;;;;;;5081283;28;20157;-40
2023/11/27 12:45:12;;;;;;;2.20;1.70;;;4.80;99.90;;;;;;5078111;28;20021;-41
2023/11/27 12:47:38;;;;;;;2.63;1.83;;;4.70;99.90;;;;;;5080315;28;20478;-36
2023/11/27 12:50:16;;;;;;;1.63;1.52;;;4.70;99.90;;;;;;5077460;28;20032;-40
2023/11/27 12:52:45;;;;;;;2.13;1.90;;;4.70;99.90;;;;;;5087428;28;20035;-42
2023/11/27 12:55:12;;;;;;;;;;;4.70;99.90;;;;;;5078932;28;20028;-40
2023/11/27 12:57:38;;;;;;;2.33;1.88;;;4.70;99.90;;;;;;5082821;28;19912;-40
2023/11/27 13:00:05;;;;;;;3.47;1.77;;;4.60;99.90;;;;;;5079923;28;20035;-41